sensor_id;sensor_type;location;lat;lon;timestamp;P1;durP1;ratioP1;P2;durP2;ratioP2
21806;SDS011;11065;50.786;7.840;2023-01-09T00:01:22;2.03;;;1.10;;
21806;SDS011;11065;50.786;7.840;2023-01-09T00:03:52;2.03;;;0.90;;
21806;SDS011;11065;50.786;7.840;2023-01-09T00:06:21;2.03;;;0.77;;
21806;SDS011;11065;50.786;7.840;2023-01-09T00:08:49;2.00;;;1.00;;
21806;SDS011;11065;50.786;7.840;2023-01-09T00:11:17;1.87;;;1.00;;
21806;SDS011;11065;50.786;7.840;2023-01-09T00:13:46;2.63;;;0.80;;
21806;SDS011;11065;50.786;7.840;2023-01-09T00:16:15;2.57;;;0.80;;
21806;SDS011;11065;50.786;7.840;2023-01-09T00:18:43;1.13;;;0.60;;
21806;SDS011;11065;50.786;7.840;2023-01-09T00:21:12;1.67;;;0.60;;
21806;SDS011;11065;50.786;7.840;2023-01-09T00:23:40;2.13;;;0.80;;
21806;SDS011;11065;50.786;7.840;2023-01-09T00:26:09;1.43;;;0.77;;
21806;SDS011;11065;50.786;7.840;2023-01-09T00:28:39;1.23;;;0.83;;
21806;SDS011;11065;50.786;7.840;2023-01-09T00:31:07;1.10;;;0.60;;
21806;SDS011;11065;50.786;7.840;2023-01-09T00:33:37;1.00;;;0.60;;
21806;SDS011;11065;50.786;7.840;2023-01-09T00:36:08;0.97;;;0.60;;
21806;SDS011;11065;50.786;7.840;2023-01-09T00:38:37;0.70;;;0.50;;
21806;SDS011;11065;50.786;7.840;2023-01-09T00:41:07;1.00;;;0.50;;
21806;SDS011;11065;50.786;7.840;2023-01-09T00:43:39;1.17;;;0.40;;
21806;SDS011;11065;50.786;7.840;2023-01-09T00:46:10;1.03;;;0.43;;
21806;SDS011;11065;50.786;7.840;2023-01-09T00:48:41;0.90;;;0.40;;
21806;SDS011;11065;50.786;7.840;2023-01-09T00:51:11;0.90;;;0.40;;
21806;SDS011;11065;50.786;7.840;2023-01-09T00:53:40;1.77;;;0.57;;
21806;SDS011;11065;50.786;7.840;2023-01-09T00:56:10;1.73;;;0.47;;
21806;SDS011;11065;50.786;7.840;2023-01-09T00:58:41;0.87;;;0.60;;
21806;SDS011;11065;50.786;7.840;2023-01-09T01:01:09;0.77;;;0.40;;
21806;SDS011;11065;50.786;7.840;2023-01-09T01:03:38;1.33;;;0.40;;
21806;SDS011;11065;50.786;7.840;2023-01-09T01:06:08;0.43;;;0.30;;
21806;SDS011;11065;50.786;7.840;2023-01-09T01:09:05;0.60;;;0.30;;
21806;SDS011;11065;50.786;7.840;2023-01-09T01:11:34;0.40;;;0.30;;
21806;SDS011;11065;50.786;7.840;2023-01-09T01:14:02;0.67;;;0.20;;
21806;SDS011;11065;50.786;7.840;2023-01-09T01:16:30;1.67;;;0.87;;
21806;SDS011;11065;50.786;7.840;2023-01-09T01:18:59;0.10;;;0.10;;
21806;SDS011;11065;50.786;7.840;2023-01-09T01:21:28;0.30;;;0.20;;
21806;SDS011;11065;50.786;7.840;2023-01-09T01:23:56;0.73;;;0.20;;
21806;SDS011;11065;50.786;7.840;2023-01-09T01:26:25;0.37;;;0.20;;
21806;SDS011;11065;50.786;7.840;2023-01-09T01:28:53;0.27;;;0.20;;
21806;SDS011;11065;50.786;7.840;2023-01-09T01:31:21;0.20;;;0.20;;
21806;SDS011;11065;50.786;7.840;2023-01-09T01:33:49;0.50;;;0.20;;
21806;SDS011;11065;50.786;7.840;2023-01-09T01:36:17;0.20;;;0.10;;
21806;SDS011;11065;50.786;7.840;2023-01-09T01:38:46;0.37;;;0.20;;
21806;SDS011;11065;50.786;7.840;2023-01-09T01:41:14;0.37;;;0.20;;
21806;SDS011;11065;50.786;7.840;2023-01-09T01:43:55;0.20;;;0.20;;
21806;SDS011;11065;50.786;7.840;2023-01-09T01:46:25;0.20;;;0.13;;
21806;SDS011;11065;50.786;7.840;2023-01-09T01:48:55;0.33;;;0.20;;
21806;SDS011;11065;50.786;7.840;2023-01-09T01:51:27;0.73;;;0.30;;
21806;SDS011;11065;50.786;7.840;2023-01-09T01:54:01;0.97;;;0.20;;
21806;SDS011;11065;50.786;7.840;2023-01-09T01:56:34;1.00;;;0.23;;
21806;SDS011;11065;50.786;7.840;2023-01-09T01:59:07;0.33;;;0.30;;
21806;SDS011;11065;50.786;7.840;2023-01-09T02:01:41;0.47;;;0.23;;
21806;SDS011;11065;50.786;7.840;2023-01-09T02:04:12;0.70;;;0.30;;
21806;SDS011;11065;50.786;7.840;2023-01-09T02:06:41;0.50;;;0.20;;
21806;SDS011;11065;50.786;7.840;2023-01-09T02:09:12;0.77;;;0.30;;
21806;SDS011;11065;50.786;7.840;2023-01-09T02:11:44;0.30;;;0.20;;
21806;SDS011;11065;50.786;7.840;2023-01-09T02:14:13;0.50;;;0.20;;
21806;SDS011;11065;50.786;7.840;2023-01-09T02:16:44;1.27;;;0.30;;
21806;SDS011;11065;50.786;7.840;2023-01-09T02:19:30;0.30;;;0.10;;
21806;SDS011;11065;50.786;7.840;2023-01-09T02:22:29;0.10;;;0.10;;
21806;SDS011;11065;50.786;7.840;2023-01-09T02:25:25;0.37;;;0.20;;
21806;SDS011;11065;50.786;7.840;2023-01-09T02:28:22;0.10;;;0.10;;
21806;SDS011;11065;50.786;7.840;2023-01-09T02:31:07;0.27;;;0.20;;
21806;SDS011;11065;50.786;7.840;2023-01-09T02:33:41;0.20;;;0.10;;
21806;SDS011;11065;50.786;7.840;2023-01-09T02:36:21;0.20;;;0.10;;
21806;SDS011;11065;50.786;7.840;2023-01-09T02:39:02;0.40;;;0.20;;
21806;SDS011;11065;50.786;7.840;2023-01-09T02:41:45;0.23;;;0.10;;
21806;SDS011;11065;50.786;7.840;2023-01-09T02:44:22;0.47;;;0.30;;
21806;SDS011;11065;50.786;7.840;2023-01-09T02:47:02;0.83;;;0.20;;
21806;SDS011;11065;50.786;7.840;2023-01-09T02:49:33;0.10;;;0.10;;
21806;SDS011;11065;50.786;7.840;2023-01-09T02:52:07;0.67;;;0.20;;
21806;SDS011;11065;50.786;7.840;2023-01-09T02:54:46;0.97;;;0.20;;
21806;SDS011;11065;50.786;7.840;2023-01-09T02:57:28;0.30;;;0.20;;
21806;SDS011;11065;50.786;7.840;2023-01-09T03:00:08;0.43;;;0.10;;
21806;SDS011;11065;50.786;7.840;2023-01-09T03:02:45;0.10;;;0.10;;
21806;SDS011;11065;50.786;7.840;2023-01-09T03:05:18;0.77;;;0.10;;
21806;SDS011;11065;50.786;7.840;2023-01-09T03:07:54;0.70;;;0.27;;
21806;SDS011;11065;50.786;7.840;2023-01-09T03:10:27;0.20;;;0.10;;
21806;SDS011;11065;50.786;7.840;2023-01-09T03:13:01;1.10;;;0.17;;
21806;SDS011;11065;50.786;7.840;2023-01-09T03:15:31;1.13;;;0.10;;
21806;SDS011;11065;50.786;7.840;2023-01-09T03:18:02;0.67;;;0.20;;
21806;SDS011;11065;50.786;7.840;2023-01-09T03:20:32;0.30;;;0.10;;
21806;SDS011;11065;50.786;7.840;2023-01-09T03:23:02;0.17;;;0.17;;
21806;SDS011;11065;50.786;7.840;2023-01-09T03:25:32;0.20;;;0.20;;
21806;SDS011;11065;50.786;7.840;2023-01-09T03:28:01;0.17;;;0.10;;
21806;SDS011;11065;50.786;7.840;2023-01-09T03:30:31;0.10;;;0.10;;
21806;SDS011;11065;50.786;7.840;2023-01-09T03:33:00;0.10;;;0.10;;
21806;SDS011;11065;50.786;7.840;2023-01-09T03:35:29;0.33;;;0.10;;
21806;SDS011;11065;50.786;7.840;2023-01-09T03:37:57;0.10;;;0.10;;
21806;SDS011;11065;50.786;7.840;2023-01-09T03:40:25;0.33;;;0.10;;
21806;SDS011;11065;50.786;7.840;2023-01-09T03:42:53;0.40;;;0.20;;
21806;SDS011;11065;50.786;7.840;2023-01-09T03:45:21;0.33;;;0.10;;
21806;SDS011;11065;50.786;7.840;2023-01-09T03:47:49;0.13;;;0.10;;
21806;SDS011;11065;50.786;7.840;2023-01-09T03:50:19;0.20;;;0.20;;
21806;SDS011;11065;50.786;7.840;2023-01-09T03:52:47;0.50;;;0.30;;
21806;SDS011;11065;50.786;7.840;2023-01-09T03:55:15;0.50;;;0.20;;
21806;SDS011;11065;50.786;7.840;2023-01-09T03:57:43;0.20;;;0.20;;
21806;SDS011;11065;50.786;7.840;2023-01-09T04:00:12;0.20;;;0.17;;
21806;SDS011;11065;50.786;7.840;2023-01-09T04:02:40;0.20;;;0.20;;
21806;SDS011;11065;50.786;7.840;2023-01-09T04:05:09;0.20;;;0.17;;
21806;SDS011;11065;50.786;7.840;2023-01-09T04:07:38;0.53;;;0.20;;
21806;SDS011;11065;50.786;7.840;2023-01-09T04:10:07;0.77;;;0.20;;
21806;SDS011;11065;50.786;7.840;2023-01-09T04:12:36;0.10;;;0.10;;
21806;SDS011;11065;50.786;7.840;2023-01-09T04:15:04;0.10;;;0.10;;
21806;SDS011;11065;50.786;7.840;2023-01-09T04:17:33;0.80;;;0.20;;
21806;SDS011;11065;50.786;7.840;2023-01-09T04:20:01;0.67;;;0.30;;
21806;SDS011;11065;50.786;7.840;2023-01-09T04:22:30;0.23;;;0.20;;
21806;SDS011;11065;50.786;7.840;2023-01-09T04:24:59;0.10;;;0.10;;
21806;SDS011;11065;50.786;7.840;2023-01-09T04:27:27;0.10;;;0.10;;
21806;SDS011;11065;50.786;7.840;2023-01-09T04:29:55;0.60;;;0.20;;
21806;SDS011;11065;50.786;7.840;2023-01-09T04:32:24;0.30;;;0.20;;
21806;SDS011;11065;50.786;7.840;2023-01-09T04:34:53;0.70;;;0.20;;
21806;SDS011;11065;50.786;7.840;2023-01-09T04:37:21;0.10;;;0.10;;
21806;SDS011;11065;50.786;7.840;2023-01-09T04:39:49;0.50;;;0.30;;
21806;SDS011;11065;50.786;7.840;2023-01-09T04:42:21;0.40;;;0.33;;
21806;SDS011;11065;50.786;7.840;2023-01-09T04:44:50;0.63;;;0.20;;
21806;SDS011;11065;50.786;7.840;2023-01-09T04:47:19;0.43;;;0.30;;
21806;SDS011;11065;50.786;7.840;2023-01-09T04:49:49;0.20;;;0.20;;
21806;SDS011;11065;50.786;7.840;2023-01-09T04:52:17;0.80;;;0.20;;
21806;SDS011;11065;50.786;7.840;2023-01-09T04:54:45;0.27;;;0.20;;
21806;SDS011;11065;50.786;7.840;2023-01-09T04:57:14;0.43;;;0.20;;
21806;SDS011;11065;50.786;7.840;2023-01-09T04:59:43;1.27;;;0.20;;
21806;SDS011;11065;50.786;7.840;2023-01-09T05:02:12;0.23;;;0.20;;
21806;SDS011;11065;50.786;7.840;2023-01-09T05:04:40;1.20;;;0.30;;
21806;SDS011;11065;50.786;7.840;2023-01-09T05:07:08;0.60;;;0.20;;
21806;SDS011;11065;50.786;7.840;2023-01-09T05:09:36;1.17;;;0.30;;
21806;SDS011;11065;50.786;7.840;2023-01-09T05:12:05;0.33;;;0.20;;
21806;SDS011;11065;50.786;7.840;2023-01-09T05:14:33;0.67;;;0.20;;
21806;SDS011;11065;50.786;7.840;2023-01-09T05:17:02;0.10;;;0.10;;
21806;SDS011;11065;50.786;7.840;2023-01-09T05:19:30;0.27;;;0.20;;
21806;SDS011;11065;50.786;7.840;2023-01-09T05:21:59;0.67;;;0.33;;
21806;SDS011;11065;50.786;7.840;2023-01-09T05:24:28;0.50;;;0.30;;
21806;SDS011;11065;50.786;7.840;2023-01-09T05:26:56;0.73;;;0.50;;
21806;SDS011;11065;50.786;7.840;2023-01-09T05:29:24;0.77;;;0.43;;
21806;SDS011;11065;50.786;7.840;2023-01-09T05:31:52;5.23;;;0.70;;
21806;SDS011;11065;50.786;7.840;2023-01-09T05:34:21;1.20;;;0.60;;
21806;SDS011;11065;50.786;7.840;2023-01-09T05:36:50;1.23;;;0.57;;
21806;SDS011;11065;50.786;7.840;2023-01-09T05:39:18;2.43;;;0.70;;
21806;SDS011;11065;50.786;7.840;2023-01-09T05:41:46;2.37;;;0.70;;
21806;SDS011;11065;50.786;7.840;2023-01-09T05:44:14;1.50;;;0.70;;
21806;SDS011;11065;50.786;7.840;2023-01-09T05:46:43;1.63;;;0.70;;
21806;SDS011;11065;50.786;7.840;2023-01-09T05:49:10;2.57;;;0.90;;
21806;SDS011;11065;50.786;7.840;2023-01-09T05:51:40;1.67;;;1.00;;
21806;SDS011;11065;50.786;7.840;2023-01-09T05:54:08;1.47;;;0.60;;
21806;SDS011;11065;50.786;7.840;2023-01-09T05:56:36;0.77;;;0.50;;
21806;SDS011;11065;50.786;7.840;2023-01-09T05:59:04;1.23;;;0.67;;
21806;SDS011;11065;50.786;7.840;2023-01-09T06:01:32;1.50;;;0.70;;
21806;SDS011;11065;50.786;7.840;2023-01-09T06:04:00;1.27;;;0.60;;
21806;SDS011;11065;50.786;7.840;2023-01-09T06:06:28;2.27;;;0.70;;
21806;SDS011;11065;50.786;7.840;2023-01-09T06:08:57;1.63;;;0.60;;
21806;SDS011;11065;50.786;7.840;2023-01-09T06:11:25;2.60;;;0.97;;
21806;SDS011;11065;50.786;7.840;2023-01-09T06:13:53;1.40;;;0.40;;
21806;SDS011;11065;50.786;7.840;2023-01-09T06:16:21;2.50;;;1.00;;
21806;SDS011;11065;50.786;7.840;2023-01-09T06:18:49;1.50;;;0.53;;
21806;SDS011;11065;50.786;7.840;2023-01-09T06:21:17;0.63;;;0.30;;
21806;SDS011;11065;50.786;7.840;2023-01-09T06:23:45;1.37;;;0.40;;
21806;SDS011;11065;50.786;7.840;2023-01-09T06:26:15;1.83;;;0.50;;
21806;SDS011;11065;50.786;7.840;2023-01-09T06:28:43;2.07;;;0.40;;
21806;SDS011;11065;50.786;7.840;2023-01-09T06:31:11;1.63;;;0.50;;
21806;SDS011;11065;50.786;7.840;2023-01-09T06:33:39;1.47;;;0.30;;
21806;SDS011;11065;50.786;7.840;2023-01-09T06:36:07;0.97;;;0.60;;
21806;SDS011;11065;50.786;7.840;2023-01-09T06:38:35;1.77;;;0.40;;
21806;SDS011;11065;50.786;7.840;2023-01-09T06:41:04;2.13;;;0.40;;
21806;SDS011;11065;50.786;7.840;2023-01-09T06:43:34;1.50;;;0.40;;
21806;SDS011;11065;50.786;7.840;2023-01-09T06:46:03;0.93;;;0.40;;
21806;SDS011;11065;50.786;7.840;2023-01-09T06:48:32;2.27;;;0.60;;
21806;SDS011;11065;50.786;7.840;2023-01-09T06:51:00;4.30;;;1.80;;
21806;SDS011;11065;50.786;7.840;2023-01-09T06:53:28;2.90;;;0.70;;
21806;SDS011;11065;50.786;7.840;2023-01-09T06:55:56;2.20;;;0.53;;
21806;SDS011;11065;50.786;7.840;2023-01-09T06:58:24;2.27;;;0.60;;
21806;SDS011;11065;50.786;7.840;2023-01-09T07:00:54;1.10;;;0.50;;
21806;SDS011;11065;50.786;7.840;2023-01-09T07:03:22;2.73;;;0.60;;
21806;SDS011;11065;50.786;7.840;2023-01-09T07:05:50;2.70;;;0.80;;
21806;SDS011;11065;50.786;7.840;2023-01-09T07:08:18;1.10;;;0.60;;
21806;SDS011;11065;50.786;7.840;2023-01-09T07:10:46;2.93;;;0.70;;
21806;SDS011;11065;50.786;7.840;2023-01-09T07:13:14;1.87;;;0.60;;
21806;SDS011;11065;50.786;7.840;2023-01-09T07:15:43;1.43;;;0.50;;
21806;SDS011;11065;50.786;7.840;2023-01-09T07:18:12;1.90;;;0.60;;
21806;SDS011;11065;50.786;7.840;2023-01-09T07:20:40;1.67;;;0.43;;
21806;SDS011;11065;50.786;7.840;2023-01-09T07:23:09;1.30;;;0.60;;
21806;SDS011;11065;50.786;7.840;2023-01-09T07:25:38;1.87;;;0.70;;
21806;SDS011;11065;50.786;7.840;2023-01-09T07:28:07;1.83;;;0.70;;
21806;SDS011;11065;50.786;7.840;2023-01-09T07:30:35;2.37;;;0.67;;
21806;SDS011;11065;50.786;7.840;2023-01-09T07:33:03;1.40;;;0.60;;
21806;SDS011;11065;50.786;7.840;2023-01-09T07:35:33;1.63;;;0.70;;
21806;SDS011;11065;50.786;7.840;2023-01-09T07:38:01;1.97;;;0.93;;
21806;SDS011;11065;50.786;7.840;2023-01-09T07:40:29;1.13;;;0.60;;
21806;SDS011;11065;50.786;7.840;2023-01-09T07:42:57;1.50;;;0.60;;
21806;SDS011;11065;50.786;7.840;2023-01-09T07:45:25;4.30;;;0.83;;
21806;SDS011;11065;50.786;7.840;2023-01-09T07:47:53;1.27;;;0.60;;
21806;SDS011;11065;50.786;7.840;2023-01-09T07:50:21;2.27;;;0.47;;
21806;SDS011;11065;50.786;7.840;2023-01-09T07:52:51;1.20;;;0.60;;
21806;SDS011;11065;50.786;7.840;2023-01-09T07:55:19;1.53;;;0.60;;
21806;SDS011;11065;50.786;7.840;2023-01-09T07:57:47;0.83;;;0.50;;
21806;SDS011;11065;50.786;7.840;2023-01-09T08:00:17;1.33;;;0.60;;
21806;SDS011;11065;50.786;7.840;2023-01-09T08:02:49;0.73;;;0.50;;
21806;SDS011;11065;50.786;7.840;2023-01-09T08:05:18;1.73;;;0.70;;
21806;SDS011;11065;50.786;7.840;2023-01-09T08:07:46;2.87;;;0.60;;
21806;SDS011;11065;50.786;7.840;2023-01-09T08:10:17;1.50;;;0.60;;
21806;SDS011;11065;50.786;7.840;2023-01-09T08:12:46;1.80;;;0.60;;
21806;SDS011;11065;50.786;7.840;2023-01-09T08:15:15;2.37;;;0.60;;
21806;SDS011;11065;50.786;7.840;2023-01-09T08:17:44;1.30;;;0.60;;
21806;SDS011;11065;50.786;7.840;2023-01-09T08:20:13;1.17;;;0.70;;
21806;SDS011;11065;50.786;7.840;2023-01-09T08:22:42;0.97;;;0.60;;
21806;SDS011;11065;50.786;7.840;2023-01-09T08:25:16;2.50;;;0.57;;
21806;SDS011;11065;50.786;7.840;2023-01-09T08:27:44;1.47;;;0.40;;
21806;SDS011;11065;50.786;7.840;2023-01-09T08:30:13;1.50;;;0.60;;
21806;SDS011;11065;50.786;7.840;2023-01-09T08:32:42;1.03;;;0.40;;
21806;SDS011;11065;50.786;7.840;2023-01-09T08:35:10;2.97;;;0.50;;
21806;SDS011;11065;50.786;7.840;2023-01-09T08:37:38;2.03;;;0.70;;
21806;SDS011;11065;50.786;7.840;2023-01-09T08:40:10;2.23;;;0.67;;
21806;SDS011;11065;50.786;7.840;2023-01-09T08:42:40;1.10;;;0.40;;
21806;SDS011;11065;50.786;7.840;2023-01-09T08:45:26;0.80;;;0.40;;
21806;SDS011;11065;50.786;7.840;2023-01-09T08:48:12;1.23;;;0.50;;
21806;SDS011;11065;50.786;7.840;2023-01-09T08:50:40;2.07;;;0.57;;
21806;SDS011;11065;50.786;7.840;2023-01-09T08:53:08;1.93;;;0.50;;
21806;SDS011;11065;50.786;7.840;2023-01-09T08:55:37;4.03;;;0.57;;
21806;SDS011;11065;50.786;7.840;2023-01-09T08:58:06;1.03;;;0.40;;
21806;SDS011;11065;50.786;7.840;2023-01-09T09:00:34;1.90;;;0.50;;
21806;SDS011;11065;50.786;7.840;2023-01-09T09:03:02;1.53;;;0.53;;
21806;SDS011;11065;50.786;7.840;2023-01-09T09:05:31;2.00;;;0.50;;
21806;SDS011;11065;50.786;7.840;2023-01-09T09:07:59;1.37;;;0.70;;
21806;SDS011;11065;50.786;7.840;2023-01-09T09:10:28;0.73;;;0.30;;
21806;SDS011;11065;50.786;7.840;2023-01-09T09:12:57;0.60;;;0.33;;
21806;SDS011;11065;50.786;7.840;2023-01-09T09:15:27;1.73;;;0.43;;
21806;SDS011;11065;50.786;7.840;2023-01-09T09:17:56;0.60;;;0.30;;
21806;SDS011;11065;50.786;7.840;2023-01-09T09:20:26;0.93;;;0.50;;
21806;SDS011;11065;50.786;7.840;2023-01-09T09:22:56;1.60;;;0.40;;
21806;SDS011;11065;50.786;7.840;2023-01-09T09:25:25;1.07;;;0.50;;
21806;SDS011;11065;50.786;7.840;2023-01-09T09:27:53;1.20;;;0.50;;
21806;SDS011;11065;50.786;7.840;2023-01-09T09:30:22;1.67;;;0.50;;
21806;SDS011;11065;50.786;7.840;2023-01-09T09:32:52;1.20;;;0.40;;
21806;SDS011;11065;50.786;7.840;2023-01-09T09:35:20;1.60;;;0.50;;
21806;SDS011;11065;50.786;7.840;2023-01-09T09:37:52;1.17;;;0.50;;
21806;SDS011;11065;50.786;7.840;2023-01-09T09:40:25;1.80;;;0.43;;
21806;SDS011;11065;50.786;7.840;2023-01-09T09:43:06;1.60;;;0.40;;
21806;SDS011;11065;50.786;7.840;2023-01-09T09:46:14;1.00;;;0.40;;
21806;SDS011;11065;50.786;7.840;2023-01-09T09:48:56;3.03;;;0.70;;
21806;SDS011;11065;50.786;7.840;2023-01-09T09:51:34;1.23;;;0.60;;
21806;SDS011;11065;50.786;7.840;2023-01-09T09:54:17;2.37;;;0.50;;
21806;SDS011;11065;50.786;7.840;2023-01-09T09:56:49;0.77;;;0.40;;
21806;SDS011;11065;50.786;7.840;2023-01-09T09:59:20;0.67;;;0.40;;
21806;SDS011;11065;50.786;7.840;2023-01-09T10:01:53;1.97;;;0.50;;
21806;SDS011;11065;50.786;7.840;2023-01-09T10:04:26;2.47;;;0.60;;
21806;SDS011;11065;50.786;7.840;2023-01-09T10:06:58;1.27;;;0.40;;
21806;SDS011;11065;50.786;7.840;2023-01-09T10:09:35;1.13;;;0.30;;
21806;SDS011;11065;50.786;7.840;2023-01-09T10:12:14;1.53;;;0.53;;
21806;SDS011;11065;50.786;7.840;2023-01-09T10:14:52;4.60;;;0.80;;
21806;SDS011;11065;50.786;7.840;2023-01-09T10:17:25;1.53;;;0.40;;
21806;SDS011;11065;50.786;7.840;2023-01-09T10:20:23;1.50;;;0.57;;
21806;SDS011;11065;50.786;7.840;2023-01-09T10:26:00;1.47;;;0.50;;
21806;SDS011;11065;50.786;7.840;2023-01-09T10:28:43;1.63;;;0.50;;
21806;SDS011;11065;50.786;7.840;2023-01-09T10:31:21;1.53;;;0.40;;
21806;SDS011;11065;50.786;7.840;2023-01-09T10:34:00;2.00;;;0.50;;
21806;SDS011;11065;50.786;7.840;2023-01-09T10:36:44;1.53;;;0.60;;
21806;SDS011;11065;50.786;7.840;2023-01-09T10:39:26;1.43;;;0.40;;
21806;SDS011;11065;50.786;7.840;2023-01-09T10:42:03;1.07;;;0.40;;
21806;SDS011;11065;50.786;7.840;2023-01-09T10:44:37;1.40;;;0.40;;
21806;SDS011;11065;50.786;7.840;2023-01-09T10:47:14;1.47;;;0.30;;
21806;SDS011;11065;50.786;7.840;2023-01-09T10:49:45;1.33;;;0.40;;
21806;SDS011;11065;50.786;7.840;2023-01-09T10:52:17;1.17;;;0.40;;
21806;SDS011;11065;50.786;7.840;2023-01-09T10:54:51;1.33;;;0.40;;
21806;SDS011;11065;50.786;7.840;2023-01-09T10:57:26;2.23;;;0.30;;
21806;SDS011;11065;50.786;7.840;2023-01-09T11:00:02;1.57;;;0.47;;
21806;SDS011;11065;50.786;7.840;2023-01-09T11:02:32;1.43;;;0.57;;
21806;SDS011;11065;50.786;7.840;2023-01-09T11:05:01;0.60;;;0.40;;
21806;SDS011;11065;50.786;7.840;2023-01-09T11:07:31;1.37;;;0.40;;
21806;SDS011;11065;50.786;7.840;2023-01-09T11:10:04;1.80;;;0.47;;
21806;SDS011;11065;50.786;7.840;2023-01-09T11:12:35;1.00;;;0.40;;
21806;SDS011;11065;50.786;7.840;2023-01-09T11:15:17;1.03;;;0.43;;
21806;SDS011;11065;50.786;7.840;2023-01-09T11:18:14;1.30;;;0.47;;
21806;SDS011;11065;50.786;7.840;2023-01-09T11:20:44;3.73;;;1.47;;
21806;SDS011;11065;50.786;7.840;2023-01-09T11:23:26;1.90;;;0.73;;
21806;SDS011;11065;50.786;7.840;2023-01-09T11:25:57;2.13;;;0.50;;
21806;SDS011;11065;50.786;7.840;2023-01-09T11:28:27;1.87;;;0.63;;
21806;SDS011;11065;50.786;7.840;2023-01-09T11:30:56;1.67;;;0.60;;
21806;SDS011;11065;50.786;7.840;2023-01-09T11:33:28;0.73;;;0.40;;
21806;SDS011;11065;50.786;7.840;2023-01-09T11:36:02;1.10;;;0.40;;
21806;SDS011;11065;50.786;7.840;2023-01-09T11:38:45;0.63;;;0.30;;
21806;SDS011;11065;50.786;7.840;2023-01-09T11:41:16;2.53;;;0.50;;
21806;SDS011;11065;50.786;7.840;2023-01-09T11:43:47;1.10;;;0.30;;
21806;SDS011;11065;50.786;7.840;2023-01-09T11:46:30;2.23;;;0.70;;
21806;SDS011;11065;50.786;7.840;2023-01-09T11:49:01;1.33;;;0.40;;
21806;SDS011;11065;50.786;7.840;2023-01-09T11:51:30;1.40;;;0.30;;
21806;SDS011;11065;50.786;7.840;2023-01-09T11:54:04;1.10;;;0.20;;
21806;SDS011;11065;50.786;7.840;2023-01-09T11:56:43;1.33;;;0.30;;
21806;SDS011;11065;50.786;7.840;2023-01-09T11:59:13;0.30;;;0.27;;
21806;SDS011;11065;50.786;7.840;2023-01-09T12:04:41;0.87;;;0.30;;
21806;SDS011;11065;50.786;7.840;2023-01-09T12:07:24;0.80;;;0.30;;
21806;SDS011;11065;50.786;7.840;2023-01-09T12:10:20;0.67;;;0.40;;
21806;SDS011;11065;50.786;7.840;2023-01-09T12:13:05;0.77;;;0.40;;
21806;SDS011;11065;50.786;7.840;2023-01-09T12:15:45;1.73;;;0.50;;
21806;SDS011;11065;50.786;7.840;2023-01-09T12:18:30;1.20;;;0.40;;
21806;SDS011;11065;50.786;7.840;2023-01-09T12:21:16;0.40;;;0.30;;
21806;SDS011;11065;50.786;7.840;2023-01-09T12:24:11;1.97;;;0.60;;
21806;SDS011;11065;50.786;7.840;2023-01-09T12:27:03;1.30;;;0.40;;
21806;SDS011;11065;50.786;7.840;2023-01-09T12:29:55;1.07;;;0.37;;
21806;SDS011;11065;50.786;7.840;2023-01-09T12:32:45;2.50;;;0.57;;
21806;SDS011;11065;50.786;7.840;2023-01-09T12:35:28;0.47;;;0.20;;
21806;SDS011;11065;50.786;7.840;2023-01-09T12:38:05;1.27;;;0.40;;
21806;SDS011;11065;50.786;7.840;2023-01-09T12:41:01;0.60;;;0.27;;
21806;SDS011;11065;50.786;7.840;2023-01-09T12:43:41;0.90;;;0.30;;
21806;SDS011;11065;50.786;7.840;2023-01-09T12:46:18;0.70;;;0.27;;
21806;SDS011;11065;50.786;7.840;2023-01-09T12:48:55;0.63;;;0.30;;
21806;SDS011;11065;50.786;7.840;2023-01-09T12:51:36;0.87;;;0.40;;
21806;SDS011;11065;50.786;7.840;2023-01-09T12:54:09;0.87;;;0.30;;
21806;SDS011;11065;50.786;7.840;2023-01-09T12:56:44;1.83;;;0.33;;
21806;SDS011;11065;50.786;7.840;2023-01-09T12:59:21;0.50;;;0.30;;
21806;SDS011;11065;50.786;7.840;2023-01-09T13:01:58;0.40;;;0.30;;
21806;SDS011;11065;50.786;7.840;2023-01-09T13:04:33;0.77;;;0.30;;
21806;SDS011;11065;50.786;7.840;2023-01-09T13:07:09;0.73;;;0.30;;
21806;SDS011;11065;50.786;7.840;2023-01-09T13:09:43;1.47;;;0.30;;
21806;SDS011;11065;50.786;7.840;2023-01-09T13:12:17;0.60;;;0.30;;
21806;SDS011;11065;50.786;7.840;2023-01-09T13:14:52;0.77;;;0.30;;
21806;SDS011;11065;50.786;7.840;2023-01-09T13:17:24;1.23;;;0.40;;
21806;SDS011;11065;50.786;7.840;2023-01-09T13:19:56;0.97;;;0.30;;
21806;SDS011;11065;50.786;7.840;2023-01-09T13:22:25;0.30;;;0.27;;
21806;SDS011;11065;50.786;7.840;2023-01-09T13:27:47;0.70;;;0.40;;
21806;SDS011;11065;50.786;7.840;2023-01-09T13:30:29;0.70;;;0.50;;
21806;SDS011;11065;50.786;7.840;2023-01-09T13:33:25;0.80;;;0.47;;
21806;SDS011;11065;50.786;7.840;2023-01-09T13:35:56;1.33;;;0.60;;
21806;SDS011;11065;50.786;7.840;2023-01-09T13:38:28;1.70;;;0.60;;
21806;SDS011;11065;50.786;7.840;2023-01-09T13:41:01;1.47;;;0.50;;
21806;SDS011;11065;50.786;7.840;2023-01-09T13:43:52;1.43;;;0.60;;
21806;SDS011;11065;50.786;7.840;2023-01-09T13:46:23;2.57;;;1.23;;
21806;SDS011;11065;50.786;7.840;2023-01-09T13:49:02;3.73;;;1.60;;
21806;SDS011;11065;50.786;7.840;2023-01-09T13:57:45;2.77;;;0.60;;
21806;SDS011;11065;50.786;7.840;2023-01-09T14:01:00;2.27;;;0.90;;
21806;SDS011;11065;50.786;7.840;2023-01-09T14:03:32;1.43;;;0.70;;
21806;SDS011;11065;50.786;7.840;2023-01-09T14:06:14;3.53;;;1.43;;
21806;SDS011;11065;50.786;7.840;2023-01-09T14:08:44;1.67;;;0.70;;
21806;SDS011;11065;50.786;7.840;2023-01-09T14:11:18;2.77;;;1.20;;
21806;SDS011;11065;50.786;7.840;2023-01-09T14:14:04;1.63;;;0.60;;
21806;SDS011;11065;50.786;7.840;2023-01-09T14:16:49;1.73;;;0.80;;
21806;SDS011;11065;50.786;7.840;2023-01-09T14:19:20;1.53;;;0.50;;
21806;SDS011;11065;50.786;7.840;2023-01-09T14:21:57;1.70;;;0.70;;
21806;SDS011;11065;50.786;7.840;2023-01-09T14:24:26;2.13;;;0.67;;
21806;SDS011;11065;50.786;7.840;2023-01-09T14:26:58;1.40;;;0.70;;
21806;SDS011;11065;50.786;7.840;2023-01-09T14:29:36;1.60;;;0.60;;
21806;SDS011;11065;50.786;7.840;2023-01-09T14:35:09;1.93;;;0.57;;
21806;SDS011;11065;50.786;7.840;2023-01-09T14:37:42;0.60;;;0.33;;
21806;SDS011;11065;50.786;7.840;2023-01-09T14:40:18;0.80;;;0.30;;
21806;SDS011;11065;50.786;7.840;2023-01-09T14:42:50;0.67;;;0.33;;
21806;SDS011;11065;50.786;7.840;2023-01-09T14:45:23;1.30;;;0.47;;
21806;SDS011;11065;50.786;7.840;2023-01-09T14:47:53;0.70;;;0.40;;
21806;SDS011;11065;50.786;7.840;2023-01-09T14:50:27;1.00;;;0.40;;
21806;SDS011;11065;50.786;7.840;2023-01-09T14:52:59;1.13;;;0.30;;
21806;SDS011;11065;50.786;7.840;2023-01-09T14:55:33;0.30;;;0.20;;
21806;SDS011;11065;50.786;7.840;2023-01-09T14:58:20;0.23;;;0.20;;
21806;SDS011;11065;50.786;7.840;2023-01-09T15:00:52;0.47;;;0.30;;
21806;SDS011;11065;50.786;7.840;2023-01-09T15:03:24;0.50;;;0.30;;
21806;SDS011;11065;50.786;7.840;2023-01-09T15:05:55;0.50;;;0.40;;
21806;SDS011;11065;50.786;7.840;2023-01-09T15:08:24;2.67;;;0.40;;
21806;SDS011;11065;50.786;7.840;2023-01-09T15:10:54;0.30;;;0.30;;
21806;SDS011;11065;50.786;7.840;2023-01-09T15:13:31;0.30;;;0.20;;
21806;SDS011;11065;50.786;7.840;2023-01-09T15:16:04;0.73;;;0.30;;
21806;SDS011;11065;50.786;7.840;2023-01-09T15:18:36;0.57;;;0.30;;
21806;SDS011;11065;50.786;7.840;2023-01-09T15:21:10;0.50;;;0.30;;
21806;SDS011;11065;50.786;7.840;2023-01-09T15:23:43;0.40;;;0.30;;
21806;SDS011;11065;50.786;7.840;2023-01-09T15:26:13;0.70;;;0.30;;
21806;SDS011;11065;50.786;7.840;2023-01-09T15:28:50;0.47;;;0.30;;
21806;SDS011;11065;50.786;7.840;2023-01-09T15:31:21;0.80;;;0.37;;
21806;SDS011;11065;50.786;7.840;2023-01-09T15:33:50;0.80;;;0.30;;
21806;SDS011;11065;50.786;7.840;2023-01-09T15:36:20;0.30;;;0.30;;
21806;SDS011;11065;50.786;7.840;2023-01-09T15:38:50;1.33;;;0.50;;